createdAt,value
2018-08-31T00:01:16.923Z,16.44
2018-08-31T00:06:02.896Z,16.19
2018-08-31T00:08:50.506Z,16.56
2018-08-31T00:11:42.920Z,16.06
2018-08-31T00:14:16.136Z,16.31
2018-08-31T00:16:49.964Z,16.12
2018-08-31T00:19:23.081Z,16.00
2018-08-31T00:21:56.269Z,16.19
2018-08-31T00:24:41.113Z,16.00
2018-08-31T00:27:25.909Z,15.88
2018-08-31T00:30:10.743Z,15.94
2018-08-31T00:33:11.303Z,16.00
2018-08-31T00:38:03.237Z,16.06
2018-08-31T00:42:51.139Z,16.06
2018-08-31T00:45:26.574Z,15.88
2018-08-31T00:48:00.249Z,15.75
2018-08-31T00:50:33.431Z,15.88
2018-08-31T00:53:06.855Z,15.75
2018-08-31T00:55:40.051Z,15.44
2018-08-31T00:58:17.710Z,15.63
2018-08-31T01:00:50.783Z,15.88
2018-08-31T01:03:23.848Z,15.94
2018-08-31T01:05:56.874Z,15.81
2018-08-31T01:08:29.952Z,15.94
2018-08-31T01:11:03.672Z,15.44
2018-08-31T01:13:36.770Z,15.31
2018-08-31T01:16:09.925Z,15.38
2018-08-31T01:18:43.049Z,15.75
2018-08-31T01:21:16.272Z,15.50
2018-08-31T01:23:49.315Z,15.19
2018-08-31T01:26:22.459Z,15.19
2018-08-31T01:28:55.517Z,15.19
2018-08-31T01:31:28.458Z,15.56
2018-08-31T01:34:01.533Z,15.69
2018-08-31T01:36:34.594Z,15.69
2018-08-31T01:39:07.798Z,15.31
2018-08-31T01:41:40.970Z,15.19
2018-08-31T01:44:15.592Z,15.19
2018-08-31T01:46:49.209Z,15.50
2018-08-31T01:49:22.286Z,15.13
2018-08-31T01:51:57.596Z,15.06
2018-08-31T01:54:30.627Z,15.06
2018-08-31T01:57:04.040Z,15.31
2018-08-31T01:59:37.037Z,15.31
2018-08-31T02:02:10.190Z,14.94
2018-08-31T02:04:43.958Z,14.94
2018-08-31T02:07:16.978Z,14.75
2018-08-31T02:09:50.043Z,14.94
2018-08-31T02:12:23.167Z,15.00
2018-08-31T02:14:56.259Z,14.69
2018-08-31T02:17:29.516Z,15.00
2018-08-31T02:20:02.611Z,14.75
2018-08-31T02:22:35.839Z,15.00
2018-08-31T02:25:08.933Z,14.56
2018-08-31T02:27:42.169Z,14.50
2018-08-31T02:30:15.176Z,14.87
2018-08-31T02:32:48.285Z,14.44
2018-08-31T02:35:21.496Z,14.75
2018-08-31T02:37:54.512Z,14.63
2018-08-31T02:40:27.824Z,14.38
2018-08-31T02:43:01.026Z,14.44
2018-08-31T02:45:34.263Z,14.75
2018-08-31T02:48:07.454Z,14.56
2018-08-31T02:50:40.621Z,14.63
2018-08-31T02:53:13.803Z,14.56
2018-08-31T02:55:47.099Z,14.06
2018-08-31T02:58:20.165Z,14.25
2018-08-31T03:00:53.343Z,14.13
2018-08-31T03:03:26.451Z,13.94
2018-08-31T03:05:59.687Z,14.06
2018-08-31T03:08:32.974Z,14.00
2018-08-31T03:11:05.943Z,13.94
2018-08-31T03:13:44.245Z,13.81
2018-08-31T03:16:17.641Z,14.00
2018-08-31T03:18:50.730Z,14.19
2018-08-31T03:21:23.886Z,14.13
2018-08-31T03:23:56.952Z,13.81
2018-08-31T03:26:29.983Z,13.94
2018-08-31T03:29:03.093Z,14.13
2018-08-31T03:31:36.204Z,13.81
2018-08-31T03:34:09.252Z,13.88
2018-08-31T03:36:42.219Z,14.19
2018-08-31T03:39:15.278Z,13.81
2018-08-31T03:41:48.288Z,13.69
2018-08-31T03:44:21.450Z,13.94
2018-08-31T03:46:54.410Z,13.75
2018-08-31T03:49:27.447Z,13.81
2018-08-31T03:52:00.452Z,14.25
2018-08-31T03:54:33.591Z,13.81
2018-08-31T03:57:06.655Z,13.81
2018-08-31T03:59:39.963Z,13.75
2018-08-31T04:02:12.883Z,14.06
2018-08-31T04:04:45.913Z,14.13
2018-08-31T04:07:19.114Z,14.38
2018-08-31T04:09:52.342Z,14.44
2018-08-31T04:12:25.459Z,13.94
2018-08-31T04:14:58.611Z,13.94
2018-08-31T04:17:31.899Z,13.81
2018-08-31T04:20:06.043Z,13.69
2018-08-31T04:22:39.073Z,13.81
2018-08-31T04:25:12.372Z,13.62
2018-08-31T04:27:45.435Z,14.19
2018-08-31T04:30:18.597Z,13.81
2018-08-31T04:32:51.728Z,13.94
2018-08-31T04:35:24.715Z,13.62
2018-08-31T04:37:57.670Z,13.62
2018-08-31T04:40:30.674Z,13.50
2018-08-31T04:43:03.697Z,13.50
2018-08-31T04:45:36.683Z,13.69
2018-08-31T04:48:09.766Z,13.62
2018-08-31T04:50:43.162Z,13.81
2018-08-31T04:53:16.265Z,13.56
2018-08-31T04:55:49.283Z,13.62
2018-08-31T04:58:22.476Z,13.44
2018-08-31T05:00:55.604Z,13.69
2018-08-31T05:03:28.577Z,13.62
2018-08-31T05:06:01.607Z,13.62
2018-08-31T05:08:34.593Z,13.50
2018-08-31T05:11:07.623Z,14.13
2018-08-31T05:13:40.772Z,13.81
2018-08-31T05:16:13.904Z,13.81
2018-08-31T05:18:47.061Z,13.94
2018-08-31T05:21:20.202Z,13.94
2018-08-31T05:23:53.350Z,14.00
2018-08-31T05:26:26.472Z,14.31
2018-08-31T05:28:59.629Z,14.25
2018-08-31T05:31:32.663Z,14.13
2018-08-31T05:34:05.839Z,13.88
2018-08-31T05:36:38.735Z,13.88
2018-08-31T05:39:12.050Z,14.13
2018-08-31T05:41:45.281Z,14.13
2018-08-31T05:44:18.370Z,14.06
2018-08-31T05:46:51.355Z,14.38
2018-08-31T05:49:24.556Z,14.31
2018-08-31T05:51:57.777Z,14.31
2018-08-31T05:54:30.734Z,14.19
2018-08-31T05:57:03.927Z,14.44
2018-08-31T05:59:37.109Z,14.25
2018-08-31T06:02:10.175Z,14.56
2018-08-31T06:04:43.389Z,14.25
2018-08-31T06:07:16.553Z,14.38
2018-08-31T06:09:49.588Z,14.44
2018-08-31T06:12:22.592Z,14.44
2018-08-31T06:14:55.851Z,14.50
2018-08-31T06:17:28.975Z,14.56
2018-08-31T06:20:01.986Z,14.50
2018-08-31T06:22:35.083Z,14.44
2018-08-31T06:25:08.288Z,14.56
2018-08-31T06:27:41.610Z,14.75
2018-08-31T06:30:14.608Z,14.81
2018-08-31T06:32:47.801Z,14.44
2018-08-31T06:35:20.933Z,14.56
2018-08-31T06:37:54.069Z,14.75
2018-08-31T06:40:27.093Z,14.69
2018-08-31T06:43:00.127Z,14.81
2018-08-31T06:45:33.227Z,14.63
2018-08-31T06:48:06.254Z,14.69
2018-08-31T06:50:39.855Z,14.87
2018-08-31T06:53:12.993Z,14.81
2018-08-31T06:55:46.316Z,15.00
2018-08-31T06:58:20.537Z,14.94
2018-08-31T07:00:53.590Z,14.94
2018-08-31T07:03:26.675Z,15.06
2018-08-31T07:05:59.733Z,15.19
2018-08-31T07:08:32.774Z,15.25
2018-08-31T07:11:05.822Z,15.00
2018-08-31T07:13:38.836Z,15.13
2018-08-31T07:16:12.650Z,14.75
2018-08-31T07:18:45.664Z,15.00
2018-08-31T07:21:18.820Z,15.00
2018-08-31T07:23:51.907Z,15.00
2018-08-31T07:26:25.587Z,15.06
2018-08-31T07:28:58.551Z,15.00
2018-08-31T07:31:31.659Z,15.00
2018-08-31T07:34:04.872Z,15.13
2018-08-31T07:36:37.979Z,15.13
2018-08-31T07:39:11.217Z,15.06
2018-08-31T07:41:44.157Z,14.94
2018-08-31T07:44:18.413Z,14.94
2018-08-31T07:46:51.620Z,15.00
2018-08-31T07:49:24.905Z,15.00
2018-08-31T07:51:58.053Z,15.13
2018-08-31T07:54:31.065Z,14.81
2018-08-31T07:57:04.258Z,14.94
2018-08-31T07:59:37.323Z,15.13
2018-08-31T08:02:10.276Z,15.00
2018-08-31T08:04:43.374Z,15.06
2018-08-31T08:12:11.273Z,15.19
2018-08-31T08:14:44.265Z,15.31
2018-08-31T08:17:17.485Z,15.38
2018-08-31T08:19:50.631Z,15.31
2018-08-31T08:22:24.380Z,15.31
2018-08-31T08:24:57.545Z,15.38
2018-08-31T08:27:30.564Z,15.50
2018-08-31T08:30:04.129Z,15.75
2018-08-31T08:32:37.223Z,15.75
2018-08-31T08:35:10.360Z,15.75
2018-08-31T08:37:43.492Z,15.81
2018-08-31T08:40:16.598Z,15.94
2018-08-31T08:42:49.562Z,15.88
2018-08-31T08:45:22.632Z,15.88
2018-08-31T08:47:55.887Z,15.94
2018-08-31T08:50:28.965Z,16.00
2018-08-31T08:53:02.049Z,16.19
2018-08-31T08:55:35.019Z,16.06
2018-08-31T08:58:08.386Z,16.19
2018-08-31T09:00:41.391Z,16.12
2018-08-31T09:03:14.571Z,16.19
2018-08-31T09:05:47.643Z,16.44
2018-08-31T09:08:20.751Z,16.25
2018-08-31T09:10:53.861Z,16.56
2018-08-31T09:13:27.015Z,16.75
2018-08-31T09:16:00.572Z,16.69
2018-08-31T09:18:33.759Z,16.81
2018-08-31T09:21:06.931Z,16.56
2018-08-31T09:23:40.041Z,16.94
2018-08-31T09:26:13.715Z,16.75
2018-08-31T09:28:47.043Z,16.87
2018-08-31T09:31:20.270Z,16.69
2018-08-31T09:33:53.515Z,16.75
2018-08-31T09:36:26.582Z,17.06
2018-08-31T09:38:59.704Z,17.19
2018-08-31T09:41:32.930Z,17.25
2018-08-31T09:44:06.102Z,17.31
2018-08-31T09:46:39.196Z,17.37
2018-08-31T09:49:12.560Z,17.62
2018-08-31T09:51:45.680Z,17.87
2018-08-31T09:54:18.781Z,17.81
2018-08-31T09:56:51.950Z,17.69
2018-08-31T09:59:25.123Z,17.87
2018-08-31T10:02:04.897Z,18.06
2018-08-31T10:04:37.909Z,18.00
2018-08-31T10:07:11.167Z,17.87
2018-08-31T10:09:44.245Z,18.19
2018-08-31T10:12:17.362Z,18.31
2018-08-31T10:14:50.387Z,18.12
2018-08-31T10:17:23.443Z,18.12
2018-08-31T10:19:56.442Z,18.12
2018-08-31T10:22:30.136Z,18.31
2018-08-31T10:25:03.237Z,18.37
2018-08-31T10:27:36.375Z,18.37
2018-08-31T10:30:09.568Z,18.50
2018-08-31T10:32:42.586Z,18.62
2018-08-31T10:35:15.614Z,18.56
2018-08-31T10:37:49.018Z,18.87
2018-08-31T10:40:22.427Z,18.94
2018-08-31T10:42:55.558Z,18.87
2018-08-31T10:45:28.543Z,18.87
2018-08-31T10:48:02.459Z,18.87
2018-08-31T10:50:35.485Z,18.62
2018-08-31T10:53:08.566Z,18.87
2018-08-31T10:55:41.975Z,18.87
2018-08-31T10:58:15.136Z,18.87
2018-08-31T11:00:48.354Z,18.87
2018-08-31T11:03:21.359Z,18.94
2018-08-31T11:05:54.427Z,19.19
2018-08-31T11:08:27.599Z,19.12
2018-08-31T11:11:00.795Z,19.31
2018-08-31T11:13:33.971Z,19.06
2018-08-31T11:16:07.133Z,19.31
2018-08-31T11:18:40.129Z,18.94
2018-08-31T11:21:13.255Z,19.12
2018-08-31T11:23:46.328Z,19.25
2018-08-31T11:26:19.421Z,19.19
2018-08-31T11:28:52.684Z,19.25
2018-08-31T11:31:25.724Z,19.25
2018-08-31T11:33:58.704Z,19.50
2018-08-31T11:36:31.718Z,19.62
2018-08-31T11:39:07.153Z,19.25
2018-08-31T11:41:40.181Z,18.94
2018-08-31T11:44:13.289Z,19.44
2018-08-31T11:46:46.289Z,19.56
2018-08-31T11:49:19.483Z,19.37
2018-08-31T11:51:52.679Z,19.56
2018-08-31T11:54:25.793Z,19.50
2018-08-31T11:56:59.959Z,19.62
2018-08-31T11:59:33.245Z,19.75
2018-08-31T12:02:06.486Z,19.81
2018-08-31T12:04:39.608Z,19.69
2018-08-31T12:07:12.929Z,19.44
2018-08-31T12:09:46.106Z,19.44
2018-08-31T12:12:19.226Z,19.37
2018-08-31T12:14:52.402Z,19.31
2018-08-31T12:17:25.512Z,19.25
2018-08-31T12:19:58.634Z,19.31
2018-08-31T12:22:31.802Z,19.56
2018-08-31T12:25:05.528Z,19.62
2018-08-31T12:27:42.584Z,19.19
2018-08-31T12:30:15.661Z,19.44
2018-08-31T12:32:48.651Z,19.69
2018-08-31T12:35:21.631Z,19.37
2018-08-31T12:37:54.820Z,19.37
2018-08-31T12:40:27.942Z,19.44
2018-08-31T12:43:00.911Z,19.62
2018-08-31T12:45:33.843Z,19.75
2018-08-31T12:48:06.994Z,19.75
2018-08-31T12:50:40.138Z,19.75
2018-08-31T12:53:13.187Z,20.00
2018-08-31T12:55:46.260Z,20.19
2018-08-31T12:58:19.931Z,20.12
2018-08-31T13:00:53.077Z,19.94
2018-08-31T13:03:26.228Z,19.81
2018-08-31T13:05:59.194Z,20.06
2018-08-31T13:08:32.315Z,19.94
2018-08-31T13:11:05.527Z,20.25
2018-08-31T13:13:38.619Z,20.25
2018-08-31T13:16:11.639Z,20.31
2018-08-31T13:18:44.583Z,20.44
2018-08-31T13:21:17.928Z,20.62
2018-08-31T13:23:51.013Z,20.62
2018-08-31T13:26:24.100Z,20.62
2018-08-31T13:28:57.081Z,20.75
2018-08-31T13:31:31.013Z,20.62
2018-08-31T13:34:04.269Z,20.56
2018-08-31T13:36:37.227Z,20.37
2018-08-31T13:39:10.233Z,20.50
2018-08-31T13:41:43.257Z,20.50
2018-08-31T13:44:16.341Z,20.44
2018-08-31T13:46:49.480Z,20.50
2018-08-31T13:49:22.541Z,20.75
2018-08-31T13:51:55.638Z,20.81
2018-08-31T13:54:28.699Z,20.88
2018-08-31T13:57:01.736Z,20.94
2018-08-31T13:59:34.854Z,20.94
2018-08-31T14:02:07.910Z,20.81
2018-08-31T14:04:41.132Z,20.81
2018-08-31T14:07:14.280Z,20.88
2018-08-31T14:09:47.561Z,20.88
2018-08-31T14:12:20.706Z,20.81
2018-08-31T14:14:53.888Z,20.56
2018-08-31T14:17:27.129Z,20.19
2018-08-31T14:20:00.357Z,20.37
2018-08-31T14:22:33.523Z,20.44
2018-08-31T14:25:06.479Z,20.56
2018-08-31T14:27:39.735Z,20.62
2018-08-31T14:30:12.717Z,20.81
2018-08-31T14:32:45.783Z,20.81
2018-08-31T14:35:18.892Z,20.88
2018-08-31T14:37:52.069Z,20.81
2018-08-31T14:40:25.254Z,21.00
2018-08-31T14:42:58.448Z,20.81
2018-08-31T14:45:31.686Z,20.37
2018-08-31T14:48:04.761Z,20.88
2018-08-31T14:50:37.885Z,20.56
2018-08-31T14:53:10.855Z,20.62
2018-08-31T14:55:44.403Z,20.25
2018-08-31T14:58:17.512Z,20.25
2018-08-31T15:00:50.702Z,20.12
2018-08-31T15:03:23.663Z,20.19
2018-08-31T15:05:56.932Z,20.25
2018-08-31T15:08:29.907Z,20.19
2018-08-31T15:11:02.949Z,20.56
2018-08-31T15:13:36.241Z,20.62
2018-08-31T15:16:09.301Z,20.69
2018-08-31T15:18:42.569Z,20.44
2018-08-31T15:21:15.689Z,20.50
2018-08-31T15:23:48.782Z,20.44
2018-08-31T15:26:21.804Z,20.44
2018-08-31T15:28:54.947Z,20.37
2018-08-31T15:31:28.535Z,20.06
2018-08-31T15:34:01.871Z,20.06
2018-08-31T15:36:35.095Z,20.50
2018-08-31T15:39:09.164Z,19.94
2018-08-31T15:41:42.205Z,20.31
2018-08-31T15:44:15.388Z,20.06
2018-08-31T15:46:48.381Z,20.00
2018-08-31T15:49:21.404Z,19.87
2018-08-31T15:51:54.854Z,20.19
2018-08-31T15:54:27.896Z,20.62
2018-08-31T15:57:00.885Z,20.69
2018-08-31T15:59:33.833Z,20.44
2018-08-31T16:02:07.267Z,20.06
2018-08-31T16:04:40.402Z,20.06
2018-08-31T16:07:13.413Z,20.12
2018-08-31T16:09:46.378Z,20.06
2018-08-31T16:12:19.612Z,19.81
2018-08-31T16:14:52.755Z,19.94
2018-08-31T16:17:25.920Z,19.94
2018-08-31T16:19:59.099Z,19.87
2018-08-31T16:22:32.140Z,20.19
2018-08-31T16:25:05.432Z,20.06
2018-08-31T16:27:38.907Z,20.12
2018-08-31T16:30:11.996Z,20.62
2018-08-31T16:32:45.162Z,20.25
2018-08-31T16:35:18.149Z,20.44
2018-08-31T16:37:51.306Z,20.00
2018-08-31T16:40:24.348Z,19.87
2018-08-31T16:42:57.387Z,19.69
2018-08-31T16:45:30.493Z,19.62
2018-08-31T16:48:03.673Z,19.69
2018-08-31T16:50:36.763Z,19.75
2018-08-31T16:53:09.905Z,19.56
2018-08-31T16:55:42.917Z,19.56
2018-08-31T16:58:15.973Z,19.75
2018-08-31T17:00:50.209Z,19.69
2018-08-31T17:03:23.345Z,19.62
2018-08-31T17:05:56.413Z,19.62
2018-08-31T17:08:29.640Z,19.50
2018-08-31T17:11:02.791Z,19.62
2018-08-31T17:13:36.321Z,19.87
2018-08-31T17:16:09.305Z,20.00
2018-08-31T17:18:42.528Z,19.75
2018-08-31T17:21:15.542Z,19.44
2018-08-31T17:23:48.709Z,19.25
2018-08-31T17:26:27.567Z,19.25
2018-08-31T17:29:06.340Z,19.12
2018-08-31T17:31:45.178Z,19.06
2018-08-31T17:34:24.103Z,19.06
2018-08-31T17:37:02.987Z,19.25
2018-08-31T17:39:35.992Z,19.00
2018-08-31T17:42:09.670Z,19.06
2018-08-31T17:44:42.794Z,19.19
2018-08-31T17:47:15.894Z,18.94
2018-08-31T17:49:49.028Z,18.87
2018-08-31T17:52:22.191Z,18.94
2018-08-31T17:54:55.205Z,18.81
2018-08-31T17:57:28.419Z,18.69
2018-08-31T18:00:01.624Z,18.69
2018-08-31T18:02:34.636Z,18.62
2018-08-31T18:05:07.587Z,18.50
2018-08-31T18:07:40.784Z,18.50
2018-08-31T18:10:13.767Z,18.56
2018-08-31T18:12:46.904Z,18.44
2018-08-31T18:15:26.993Z,18.69
2018-08-31T18:18:00.131Z,18.50
2018-08-31T18:20:33.289Z,18.44
2018-08-31T18:23:06.437Z,18.37
2018-08-31T18:25:39.740Z,18.37
2018-08-31T18:28:12.696Z,18.37
2018-08-31T18:30:45.711Z,18.37
2018-08-31T18:33:18.846Z,18.31
2018-08-31T18:35:51.963Z,18.31
2018-08-31T18:38:25.196Z,18.19
2018-08-31T18:40:58.300Z,18.19
2018-08-31T18:43:31.337Z,18.12
2018-08-31T18:46:04.387Z,18.12
2018-08-31T18:48:37.456Z,18.06
2018-08-31T18:51:10.563Z,18.12
2018-08-31T18:53:43.627Z,18.06
2018-08-31T18:56:16.833Z,18.06
2018-08-31T18:58:49.896Z,17.94
2018-08-31T19:01:22.962Z,17.94
2018-08-31T19:03:55.962Z,17.94
2018-08-31T19:06:29.217Z,17.87
2018-08-31T19:09:02.681Z,17.81
2018-08-31T19:11:35.683Z,17.75
2018-08-31T19:14:09.386Z,17.75
2018-08-31T19:16:42.548Z,17.69
2018-08-31T19:19:15.757Z,17.69
2018-08-31T19:21:48.709Z,17.62
2018-08-31T19:24:21.738Z,17.62
2018-08-31T19:26:56.190Z,17.62
2018-08-31T19:29:29.195Z,17.62
2018-08-31T19:32:02.303Z,17.56
2018-08-31T19:34:36.185Z,17.56
2018-08-31T19:37:09.326Z,17.50
2018-08-31T19:39:42.301Z,17.50
2018-08-31T19:42:15.701Z,17.50
2018-08-31T19:44:48.769Z,17.50
2018-08-31T19:47:21.759Z,17.44
2018-08-31T19:49:54.843Z,17.44
2018-08-31T19:52:27.919Z,17.44
2018-08-31T19:55:01.514Z,17.37
2018-08-31T19:57:34.442Z,17.31
2018-08-31T20:00:07.426Z,17.37
2018-08-31T20:02:40.354Z,17.31
2018-08-31T20:05:13.398Z,17.31
2018-08-31T20:07:47.288Z,17.31
2018-08-31T20:10:20.256Z,17.25
2018-08-31T20:12:53.458Z,17.25
2018-08-31T20:15:26.884Z,17.19
2018-08-31T20:17:59.920Z,17.19
2018-08-31T20:20:33.102Z,17.19
2018-08-31T20:23:06.208Z,17.12
2018-08-31T20:25:39.231Z,17.12
2018-08-31T20:28:12.359Z,17.06
2018-08-31T20:30:45.354Z,17.06
2018-08-31T20:33:18.569Z,17.00
2018-08-31T20:35:51.761Z,17.00
2018-08-31T20:38:24.864Z,16.94
2018-08-31T20:40:58.448Z,16.94
2018-08-31T20:43:31.467Z,16.94
2018-08-31T20:46:04.762Z,16.87
2018-08-31T20:48:39.390Z,16.87
2018-08-31T20:51:12.555Z,16.87
2018-08-31T20:53:45.865Z,16.81
2018-08-31T20:56:19.021Z,16.81
2018-08-31T20:58:52.144Z,16.75
2018-08-31T21:01:25.464Z,16.75
2018-08-31T21:03:58.646Z,16.69
2018-08-31T21:06:31.789Z,16.62
2018-08-31T21:09:07.078Z,16.62
2018-08-31T21:11:40.241Z,16.62
2018-08-31T21:14:13.467Z,16.56
2018-08-31T21:16:46.577Z,16.56
2018-08-31T21:19:19.855Z,16.56
2018-08-31T21:21:53.143Z,16.44
2018-08-31T21:24:26.537Z,16.44
2018-08-31T21:26:59.756Z,16.44
2018-08-31T21:29:32.879Z,16.44
2018-08-31T21:32:06.165Z,16.37
2018-08-31T21:34:39.341Z,16.31
2018-08-31T21:37:12.447Z,16.31
2018-08-31T21:39:45.791Z,16.31
2018-08-31T21:42:19.217Z,16.31
2018-08-31T21:44:52.305Z,16.25
2018-08-31T21:47:25.309Z,16.19
2018-08-31T21:49:58.495Z,16.25
2018-08-31T21:52:31.480Z,16.25
2018-08-31T21:55:04.775Z,16.25
2018-08-31T21:57:38.175Z,16.25
2018-08-31T22:00:13.711Z,16.25
2018-08-31T22:02:47.351Z,16.31
2018-08-31T22:05:20.712Z,16.31
2018-08-31T22:07:53.683Z,16.31
2018-08-31T22:10:26.932Z,16.31
2018-08-31T22:13:00.052Z,16.25
2018-08-31T22:15:34.260Z,16.25
2018-08-31T22:18:07.482Z,16.31
2018-08-31T22:20:40.501Z,16.31
2018-08-31T22:23:13.480Z,16.37
2018-08-31T22:25:46.561Z,16.31
2018-08-31T22:28:19.743Z,16.37
2018-08-31T22:30:52.715Z,16.31
2018-08-31T22:33:25.743Z,16.31
2018-08-31T22:35:58.891Z,16.31
2018-08-31T22:38:32.022Z,16.31
2018-08-31T22:41:05.089Z,16.31
2018-08-31T22:43:44.067Z,16.31
2018-08-31T22:46:18.243Z,16.31
2018-08-31T22:48:51.863Z,16.31
2018-08-31T22:51:25.128Z,16.31
2018-08-31T22:53:58.224Z,16.25
2018-08-31T22:56:31.411Z,16.25
2018-08-31T22:59:04.599Z,16.25
2018-08-31T23:01:37.939Z,16.19
2018-08-31T23:04:11.182Z,16.19
2018-08-31T23:06:44.204Z,16.12
2018-08-31T23:09:17.182Z,16.12
2018-08-31T23:11:50.184Z,16.12
2018-08-31T23:14:23.288Z,16.06
2018-08-31T23:16:56.494Z,16.06
2018-08-31T23:19:29.608Z,16.00
2018-08-31T23:22:02.691Z,15.94
2018-08-31T23:24:35.939Z,16.00
2018-08-31T23:27:08.895Z,15.94
2018-08-31T23:29:41.929Z,15.94
2018-08-31T23:32:15.027Z,15.88
2018-08-31T23:34:48.004Z,15.88
2018-08-31T23:37:21.160Z,15.88
2018-08-31T23:39:54.320Z,15.88
2018-08-31T23:42:27.348Z,15.88
2018-08-31T23:45:00.388Z,15.81
2018-08-31T23:47:33.380Z,15.81
2018-08-31T23:50:06.372Z,15.88
2018-08-31T23:52:39.369Z,15.88
2018-08-31T23:55:12.434Z,15.88
2018-08-31T23:57:45.344Z,15.88
